Terminal Aerodrome Forecast
Issued by NWS

Home | Current Version | Previous Version | Text Only | Print | Product List | Glossary On
Versions: 1 2 3 4 5 6 7 8 9 10 11 12 13 14 15 16 17 18 19 20 21
000
FTUS41 KGYX 010913 AAA
TAFHIE
TAF AMD
KHIE 010913Z 0109/0206 00000KT P6SM BKN250
     FM011400 VRB03KT P6SM BKN050
     FM011700 15006KT P6SM -SHRA OVC035=

USA.gov is the U.S. government's official web portal to all federal, state and local government web resources and services.